Terminal Aerodrome Forecast
Issued by NWS Bismarck, ND

Home | Current Version | Previous Version | Graphics & Text | Print | Product List | Glossary On
Versions: 1 2 3 4 5 6 7 8 9 10 11 12 13 14 15 16 17 18
000
FTUS43 KBIS 261721
TAFISN
TAF
KISN 261721Z 2618/2718 19005KT P6SM BKN150
     FM270300 09006KT P6SM SCT120 BKN150
     FM270600 01007KT 6SM -TSRA OVC090CB
     FM270900 01010KT P6SM -SHRA VCTS BKN070CB
     FM271200 02008KT P6SM SCT012 BKN070
     FM271500 02012KT P6SM BKN025=

USA.gov is the U.S. government's official web portal to all federal, state and local government web resources and services.